Time;durP1;ratioP1;P1;durP2;ratioP2;P2;SDS_P1;SDS_P2;PMS_P1;PMS_P2;Temp;Humidity;BMP_temperature;BMP_pressure;BME280_temperature;BME280_humidity;BME280_pressure;Samples;Min_cycle;Max_cycle;Signal;HPM_P1;HPM_P2
2022/03/11 00:00:50;;;;;;;0.20;0.20;;;;;;;20.05;30.97;101498.72;5063931;28;20438;-33
2022/03/11 00:03:18;;;;;;;0.20;0.20;;;;;;;20.03;30.91;101489.88;5060490;28;20067;-36
2022/03/11 00:05:44;;;;;;;0.20;0.20;;;;;;;20.04;30.80;101491.53;5060360;28;20146;-33
2022/03/11 00:08:10;;;;;;;0.20;0.20;;;;;;;20.04;30.66;101487.94;5063244;28;20048;-37
2022/03/11 00:10:35;;;;;;;0.20;0.20;;;;;;;20.03;30.68;101486.25;5057931;28;20432;-33
2022/03/11 00:13:01;;;;;;;0.20;0.20;;;;;;;20.04;30.84;101488.78;5066453;28;20107;-32
2022/03/11 00:15:27;;;;;;;0.20;0.20;;;;;;;20.03;30.63;101487.13;5060573;28;20101;-33
2022/03/11 00:17:52;;;;;;;0.20;0.20;;;;;;;20.03;31.05;101486.25;5058304;28;20052;-34
2022/03/11 00:20:21;;;;;;;0.20;0.20;;;;;;;20.03;30.97;101487.13;5063414;28;20047;-33
2022/03/11 00:22:48;;;;;;;0.20;0.20;;;;;;;20.03;30.72;101486.25;5064418;28;20599;-32
2022/03/11 00:25:14;;;;;;;0.20;0.20;;;;;;;20.03;30.65;101489.88;5044156;28;20192;-34
2022/03/11 00:27:40;;;;;;;0.20;0.20;;;;;;;20.02;30.90;101485.44;5063142;28;20351;-32
2022/03/11 00:30:06;;;;;;;0.20;0.20;;;;;;;20.03;30.88;101486.25;5043167;28;20084;-34
2022/03/11 00:32:32;;;;;;;0.20;0.20;;;;;;;20.04;30.65;101490.72;5044125;28;20147;-34
2022/03/11 00:34:58;;;;;;;0.20;0.20;;;;;;;20.03;30.78;101495.41;5059368;28;20048;-33
2022/03/11 00:37:24;;;;;;;0.20;0.20;;;;;;;20.02;30.92;101492.91;5061775;28;20079;-31
2022/03/11 00:39:50;;;;;;;0.20;0.20;;;;;;;20.03;31.05;101491.78;5057612;28;20041;-33
2022/03/11 00:42:16;;;;;;;0.20;0.20;;;;;;;20.03;31.04;101502.84;5061932;28;20073;-32
2022/03/11 00:44:42;;;;;;;0.20;0.20;;;;;;;20.03;30.67;101502.84;5067447;28;20059;-31
2022/03/11 00:47:09;;;;;;;0.20;0.20;;;;;;;20.02;30.88;101493.72;5062598;28;20036;-32
2022/03/11 00:49:35;;;;;;;0.20;0.20;;;;;;;20.03;30.81;101500.09;5048781;28;20149;-32
2022/03/11 00:52:01;;;;;;;0.20;0.20;;;;;;;20.02;31.05;101490.97;5040270;28;20201;-37
2022/03/11 00:54:27;;;;;;;0.20;0.20;;;;;;;20.02;30.91;101502.03;5061106;28;20041;-32
2022/03/11 00:56:53;;;;;;;0.20;0.20;;;;;;;20.03;30.72;101494.56;5062398;28;20068;-33
2022/03/11 00:59:18;;;;;;;0.20;0.20;;;;;;;20.02;31.04;101490.13;5058360;28;20253;-31
2022/03/11 01:01:44;;;;;;;0.20;0.20;;;;;;;20.01;31.18;101483.78;5059740;28;20361;-32
2022/03/11 01:04:10;;;;;;;0.20;0.20;;;;;;;20.02;30.78;101488.19;5061637;28;20049;-31
2022/03/11 01:06:36;;;;;;;0.20;0.20;;;;;;;20.03;30.81;101480.72;5055089;28;20588;-30
2022/03/11 01:09:02;;;;;;;0.20;0.20;;;;;;;20.02;30.88;101479.91;5054904;28;20147;-30
2022/03/11 01:11:28;;;;;;;0.20;0.20;;;;;;;20.02;30.99;101468.84;5060225;28;20045;-34
2022/03/11 01:13:53;;;;;;;0.20;0.20;;;;;;;20.02;30.88;101466.09;5063573;28;20297;-32
2022/03/11 01:16:19;;;;;;;0.20;0.20;;;;;;;20.03;31.03;101465.00;5065241;28;20048;-31
2022/03/11 01:18:45;;;;;;;0.20;0.20;;;;;;;20.01;30.85;101466.38;5063693;28;20048;-31
2022/03/11 01:21:11;;;;;;;0.20;0.20;;;;;;;20.01;30.91;101466.38;5064423;28;20095;-31
2022/03/11 01:23:37;;;;;;;0.20;0.20;;;;;;;20.02;31.09;101468.03;5060538;28;20106;-33
2022/03/11 01:26:03;;;;;;;0.20;0.20;;;;;;;20.02;30.88;101463.31;5057995;28;20048;-31
2022/03/11 01:28:28;;;;;;;0.20;0.20;;;;;;;20.01;30.80;101460.84;5063092;28;20467;-35
2022/03/11 01:30:54;;;;;;;0.20;0.20;;;;;;;20.01;30.87;101456.13;5063117;28;20106;-32
2022/03/11 01:33:20;;;;;;;0.20;0.20;;;;;;;20.02;31.10;101448.66;5060995;28;20052;-36
2022/03/11 01:35:46;;;;;;;0.20;0.20;;;;;;;20.00;30.84;101454.47;5058151;28;20045;-31
2022/03/11 01:38:12;;;;;;;0.20;0.20;;;;;;;20.00;30.88;101454.47;5067404;28;20215;-32
2022/03/11 01:40:38;;;;;;;0.17;0.17;;;;;;;20.00;31.13;101451.72;5057393;28;20426;-32
2022/03/11 01:43:03;;;;;;;0.20;0.20;;;;;;;20.01;30.97;101452.53;5062055;28;20040;-38
2022/03/11 01:45:29;;;;;;;0.20;0.20;;;;;;;20.00;31.15;101448.97;5060419;28;20049;-33
2022/03/11 01:47:55;;;;;;;0.20;0.20;;;;;;;20.01;30.95;101442.31;5061041;28;20079;-33
2022/03/11 01:50:21;;;;;;;0.20;0.20;;;;;;;20.00;30.92;101442.59;5063990;28;20041;-34
2022/03/11 01:52:46;;;;;;;0.20;0.20;;;;;;;20.01;30.85;101436.78;5061338;28;20049;-34
2022/03/11 01:55:13;;;;;;;0.20;0.20;;;;;;;20.02;30.87;101441.19;5051872;28;20388;-33
2022/03/11 01:57:39;;;;;;;0.10;0.10;;;;;;;20.01;30.96;101431.25;5061918;28;20072;-32
2022/03/11 02:00:07;;;;;;;0.20;0.20;;;;;;;20.01;30.95;101430.44;5060528;28;20052;-31
2022/03/11 02:02:32;;;;;;;0.20;0.20;;;;;;;20.00;30.72;101432.38;5057986;28;20048;-32
2022/03/11 02:04:59;;;;;;;0.20;0.20;;;;;;;20.00;30.86;101426.84;5061003;28;20048;-33
2022/03/11 02:07:26;;;;;;;0.20;0.20;;;;;;;20.01;31.06;101430.44;5059784;28;20708;-34
2022/03/11 02:09:52;;;;;;;0.20;0.20;;;;;;;20.00;30.86;101426.84;5063422;28;20049;-33
2022/03/11 02:12:35;;;;;;;0.20;0.20;;;;;;;20.01;30.77;101422.97;5066451;28;20075;-34
2022/03/11 02:15:02;;;;;;;0.20;0.20;;;;;;;19.99;31.17;101414.13;5056488;28;20051;-31
2022/03/11 02:17:27;;;;;;;0.20;0.20;;;;;;;19.99;31.01;101408.59;5040276;28;20065;-35
2022/03/11 02:19:53;;;;;;;0.20;0.20;;;;;;;20.00;31.22;101413.00;5061028;28;20049;-32
2022/03/11 02:22:22;;;;;;;0.20;0.20;;;;;;;20.00;30.76;101409.41;5060601;28;20099;-34
2022/03/11 02:24:49;;;;;;;0.20;0.20;;;;;;;20.00;30.80;101413.00;5038142;28;20045;-30
2022/03/11 02:27:14;;;;;;;0.20;0.20;;;;;;;19.99;31.06;101411.38;5063011;28;20080;-32
2022/03/11 02:29:40;;;;;;;0.10;0.10;;;;;;;20.00;30.83;101418.53;5059653;28;20044;-32
2022/03/11 02:32:06;;;;;;;0.20;0.20;;;;;;;20.00;31.07;101418.53;5056208;28;20043;-31
2022/03/11 02:34:32;;;;;;;0.20;0.20;;;;;;;19.99;30.97;101408.59;5061744;28;20053;-31
2022/03/11 02:36:57;;;;;;;0.20;0.20;;;;;;;19.99;31.13;101410.50;5065203;28;20406;-32
2022/03/11 02:39:23;;;;;;;0.20;0.20;;;;;;;20.01;30.96;101413.84;5063988;28;20052;-32
2022/03/11 02:41:51;;;;;;;0.20;0.20;;;;;;;20.00;30.96;101403.91;5058753;28;20052;-38
2022/03/11 02:44:17;;;;;;;0.10;0.10;;;;;;;19.98;31.03;101406.09;5066154;28;20045;-32
2022/03/11 02:46:42;;;;;;;0.20;0.20;;;;;;;19.99;31.08;101410.50;5067733;28;21253;-31
2022/03/11 02:49:08;;;;;;;0.20;0.20;;;;;;;19.99;31.10;101405.84;5063488;28;20051;-32
2022/03/11 02:51:34;;;;;;;0.20;0.20;;;;;;;19.99;30.92;101403.06;5054856;28;20045;-32
2022/03/11 02:54:00;;;;;;;0.20;0.20;;;;;;;20.00;31.15;101404.72;5061304;28;20056;-34
2022/03/11 02:56:25;;;;;;;0.20;0.20;;;;;;;20.00;31.00;101403.91;5065348;28;20102;-32
2022/03/11 02:58:51;;;;;;;0.20;0.20;;;;;;;19.99;31.16;101403.06;5060530;28;20181;-32
2022/03/11 03:01:16;;;;;;;0.20;0.20;;;;;;;20.01;31.16;101397.25;5064631;28;20098;-31
2022/03/11 03:03:42;;;;;;;0.20;0.20;;;;;;;20.00;30.86;101398.38;5064272;28;20067;-32
2022/03/11 03:06:08;;;;;;;0.20;0.20;;;;;;;20.00;31.10;101398.38;5061315;28;20050;-32
2022/03/11 03:08:34;;;;;;;0.20;0.20;;;;;;;20.00;31.02;101392.84;5061037;28;20491;-32
2022/03/11 03:11:00;;;;;;;0.20;0.20;;;;;;;19.99;30.90;101397.53;5059411;28;20048;-31
2022/03/11 03:13:26;;;;;;;0.20;0.20;;;;;;;19.99;30.94;101393.91;5064007;28;20062;-31
2022/03/11 03:15:51;;;;;;;0.20;0.20;;;;;;;20.01;30.88;101391.72;5067018;28;20051;-31
2022/03/11 03:18:18;;;;;;;0.20;0.20;;;;;;;20.01;30.75;101391.72;5065031;28;20053;-31
2022/03/11 03:20:44;;;;;;;0.10;0.10;;;;;;;20.00;30.80;101384.53;5065541;28;20045;-32
2022/03/11 03:23:09;;;;;;;0.20;0.20;;;;;;;19.99;30.91;101400.31;5062959;28;20064;-33
2022/03/11 03:25:35;;;;;;;0.20;0.20;;;;;;;19.99;30.97;101391.16;5062476;28;20052;-32
2022/03/11 03:28:01;;;;;;;0.20;0.20;;;;;;;20.00;30.80;101392.84;5061993;28;20049;-32
2022/03/11 03:30:27;;;;;;;0.20;0.20;;;;;;;19.99;31.13;101393.91;5057264;28;20041;-33
2022/03/11 03:32:52;;;;;;;0.20;0.20;;;;;;;19.99;30.83;101392.00;5066271;28;20049;-32
2022/03/11 03:35:18;;;;;;;0.20;0.20;;;;;;;19.98;30.97;101390.31;5057205;28;20476;-33
2022/03/11 03:37:44;;;;;;;0.20;0.20;;;;;;;19.99;31.05;101380.94;5057449;28;20139;-32
2022/03/11 03:40:10;;;;;;;0.20;0.20;;;;;;;19.99;30.74;101382.84;5063730;28;20060;-31
2022/03/11 03:42:35;;;;;;;0.20;0.20;;;;;;;19.98;31.15;101387.56;5064263;28;20052;-35
2022/03/11 03:45:02;;;;;;;0.20;0.20;;;;;;;20.00;30.82;101388.13;5062106;28;20037;-34
2022/03/11 03:47:28;;;;;;;0.20;0.20;;;;;;;19.99;31.05;101394.78;5061148;28;20395;-35
2022/03/11 03:49:54;;;;;;;0.20;0.20;;;;;;;20.00;30.89;101384.53;5061624;28;20045;-33
2022/03/11 03:52:19;;;;;;;0.20;0.20;;;;;;;19.99;30.84;101386.47;5064048;28;20044;-32
2022/03/11 03:54:45;;;;;;;0.20;0.20;;;;;;;19.98;30.84;101384.78;5064280;28;20036;-32
2022/03/11 03:57:11;;;;;;;0.20;0.20;;;;;;;20.00;31.05;101384.53;5061049;28;20487;-32
2022/03/11 03:59:39;;;;;;;0.20;0.20;;;;;;;20.01;30.97;101395.31;5068194;28;20147;-32
2022/03/11 04:02:05;;;;;;;0.20;0.20;;;;;;;19.99;31.07;101388.38;5054886;28;20048;-33
2022/03/11 04:04:31;;;;;;;0.20;0.20;;;;;;;19.98;31.11;101390.31;5058132;28;20515;-32
2022/03/11 04:06:57;;;;;;;0.20;0.20;;;;;;;20.00;30.98;101392.84;5058523;28;20490;-32
2022/03/11 04:09:23;;;;;;;0.20;0.20;;;;;;;19.98;30.98;101393.09;5042672;28;20049;-32
2022/03/11 04:11:49;;;;;;;0.20;0.20;;;;;;;19.98;31.08;101390.31;5060610;28;20048;-35
2022/03/11 04:14:14;;;;;;;0.20;0.20;;;;;;;19.99;30.94;101388.38;5068894;28;20106;-33
2022/03/11 04:16:40;;;;;;;0.20;0.20;;;;;;;19.98;31.16;101383.97;5061658;28;20053;-32
2022/03/11 04:19:06;;;;;;;0.20;0.20;;;;;;;19.97;31.21;101382.31;5044692;28;20070;-32
2022/03/11 04:21:31;;;;;;;0.20;0.20;;;;;;;19.98;30.87;101397.78;5058771;28;20036;-32
2022/03/11 04:23:57;;;;;;;0.20;0.20;;;;;;;19.99;31.15;101388.38;5061407;28;20057;-33
2022/03/11 04:26:23;;;;;;;0.20;0.20;;;;;;;19.98;31.22;101393.09;5062210;28;20048;-33
2022/03/11 04:28:49;;;;;;;0.20;0.20;;;;;;;19.97;31.02;101379.56;5058869;28;20234;-32
2022/03/11 04:31:15;;;;;;;0.20;0.20;;;;;;;19.98;31.23;101384.78;5060758;28;20044;-31
2022/03/11 04:33:41;;;;;;;0.20;0.20;;;;;;;19.98;30.99;101379.25;5060161;28;20095;-31
2022/03/11 04:36:08;;;;;;;0.20;0.20;;;;;;;19.98;31.14;101383.97;5041155;28;20052;-35
2022/03/11 04:38:34;;;;;;;0.20;0.20;;;;;;;19.97;30.88;101377.63;5059387;28;20535;-32
2022/03/11 04:41:00;;;;;;;0.20;0.20;;;;;;;19.98;31.01;101382.03;5064312;28;20049;-33
2022/03/11 04:43:26;;;;;;;0.22;0.22;;;;;;;19.98;31.08;101378.44;5064809;28;20077;-31
2022/03/11 04:45:52;;;;;;;0.20;0.20;;;;;;;19.96;31.32;101381.50;5065780;28;20657;-32
2022/03/11 04:48:18;;;;;;;0.20;0.20;;;;;;;19.98;30.96;101381.22;5060217;28;20140;-32
2022/03/11 04:50:43;;;;;;;0.20;0.20;;;;;;;19.98;31.27;101378.44;5045058;28;20045;-33
2022/03/11 04:53:09;;;;;;;0.20;0.20;;;;;;;19.97;31.04;101387.84;5066225;28;20075;-32
2022/03/11 04:55:36;;;;;;;0.20;0.20;;;;;;;19.99;31.15;101380.09;5056976;28;20055;-33
2022/03/11 04:58:02;;;;;;;0.20;0.20;;;;;;;19.97;30.90;101372.09;5057176;28;20082;-33
2022/03/11 05:00:28;;;;;;;0.20;0.20;;;;;;;19.97;31.00;101379.56;5063600;28;20070;-32
2022/03/11 05:02:54;;;;;;;0.20;0.20;;;;;;;19.97;31.26;101377.63;5065666;28;20049;-32
2022/03/11 05:05:20;;;;;;;0.20;0.20;;;;;;;19.97;31.17;101366.56;5061381;28;20041;-32
2022/03/11 05:07:46;;;;;;;0.20;0.20;;;;;;;19.97;30.98;101365.72;5063031;28;20048;-33
2022/03/11 05:10:14;;;;;;;0.20;0.20;;;;;;;19.98;31.08;101378.44;5045558;28;20044;-31
2022/03/11 05:12:40;;;;;;;0.20;0.20;;;;;;;19.98;31.04;101361.84;5039689;28;20398;-32
2022/03/11 05:15:07;;;;;;;0.20;0.20;;;;;;;19.98;30.86;101364.63;5060604;28;20037;-31
2022/03/11 05:17:32;;;;;;;0.20;0.20;;;;;;;19.98;31.15;101359.09;5063767;28;20110;-34
2022/03/11 05:19:58;;;;;;;0.20;0.20;;;;;;;19.98;31.32;101364.63;5063851;28;20475;-32
2022/03/11 05:22:24;;;;;;;0.20;0.20;;;;;;;19.98;30.92;101361.84;5065075;28;20056;-32
2022/03/11 05:24:50;;;;;;;0.10;0.10;;;;;;;19.96;30.87;101356.63;5062572;28;20402;-31
2022/03/11 05:27:16;;;;;;;0.20;0.20;;;;;;;19.97;30.95;101354.69;5062108;28;20056;-33
2022/03/11 05:29:42;;;;;;;0.20;0.20;;;;;;;19.97;30.92;101361.03;5059516;28;20060;-31
2022/03/11 05:32:08;;;;;;;0.20;0.20;;;;;;;19.98;31.06;101359.09;5045249;28;20036;-31
2022/03/11 05:34:37;;;;;;;0.20;0.20;;;;;;;19.98;31.06;101353.56;5071413;28;20102;-32
2022/03/11 05:37:03;;;;;;;0.20;0.20;;;;;;;19.96;30.90;101342.78;5044939;28;20040;-33
2022/03/11 05:39:29;;;;;;;0.20;0.20;;;;;;;19.98;30.86;101350.78;5068536;28;20045;-34
2022/03/11 05:41:54;;;;;;;0.20;0.20;;;;;;;19.97;31.20;101346.38;5063785;28;20049;-31
2022/03/11 05:44:20;;;;;;;0.20;0.20;;;;;;;19.97;30.98;101344.44;5059610;28;20093;-32
2022/03/11 05:46:47;;;;;;;0.20;0.20;;;;;;;19.98;31.16;101350.78;5067740;28;20101;-34
2022/03/11 05:49:13;;;;;;;0.20;0.20;;;;;;;19.96;31.06;101340.03;5049958;28;20051;-33
2022/03/11 05:51:38;;;;;;;0.20;0.20;;;;;;;19.98;31.10;101353.56;5055815;28;20442;-33
2022/03/11 05:54:05;;;;;;;0.20;0.20;;;;;;;19.96;30.83;101345.56;5057349;28;20060;-32
2022/03/11 05:56:31;;;;;;;0.20;0.20;;;;;;;19.97;31.02;101338.09;5066901;28;20052;-33
2022/03/11 05:58:57;;;;;;;0.20;0.20;;;;;;;19.98;30.65;101339.75;5062285;28;20043;-32
2022/03/11 06:01:22;;;;;;;0.20;0.20;;;;;;;19.98;30.79;101334.22;5059080;28;20139;-32
2022/03/11 06:03:48;;;;;;;0.20;0.20;;;;;;;19.97;30.75;101338.91;5060093;28;20052;-36
2022/03/11 06:06:15;;;;;;;0.20;0.20;;;;;;;19.97;30.93;101332.56;5058688;28;20048;-31
2022/03/11 06:08:41;;;;;;;0.20;0.20;;;;;;;19.96;31.00;101328.97;5066258;28;20400;-36
2022/03/11 06:11:06;;;;;;;0.20;0.20;;;;;;;19.96;31.08;101330.91;5064312;28;20459;-33
2022/03/11 06:13:32;;;;;;;0.20;0.20;;;;;;;19.96;30.65;101328.16;5059684;28;21180;-33
2022/03/11 06:15:58;;;;;;;0.20;0.20;;;;;;;19.98;30.91;101334.22;5062066;28;20468;-32
2022/03/11 06:18:24;;;;;;;0.20;0.20;;;;;;;19.96;30.96;101333.66;5069440;28;20511;-31
2022/03/11 06:20:49;;;;;;;0.20;0.20;;;;;;;19.98;30.69;101331.44;5062991;28;20241;-34
2022/03/11 06:23:15;;;;;;;0.20;0.20;;;;;;;19.97;31.04;101333.38;5065614;28;20048;-32
2022/03/11 06:25:42;;;;;;;0.20;0.20;;;;;;;19.99;30.85;101333.09;5057346;28;20036;-35
2022/03/11 06:28:08;;;;;;;0.20;0.20;;;;;;;19.98;30.86;101332.28;5061856;28;20094;-34
2022/03/11 06:30:34;;;;;;;0.20;0.20;;;;;;;19.97;30.96;101336.16;5043155;28;20097;-32
2022/03/11 06:33:00;;;;;;;0.20;0.20;;;;;;;19.97;30.81;101330.63;5066779;28;20056;-32
2022/03/11 06:35:26;;;;;;;0.20;0.20;;;;;;;19.96;30.90;101334.50;5060458;28;20577;-35
2022/03/11 06:37:52;;;;;;;0.20;0.20;;;;;;;19.96;31.03;101340.03;5061890;28;20044;-31
2022/03/11 06:40:18;;;;;;;0.20;0.20;;;;;;;19.96;31.11;101336.44;5062058;28;20056;-30
2022/03/11 06:42:46;;;;;;;0.20;0.20;;;;;;;19.95;30.96;101326.50;5060357;28;20094;-31
2022/03/11 06:45:13;;;;;;;0.20;0.20;;;;;;;19.96;30.63;101337.25;5059385;28;20476;-33
2022/03/11 06:47:40;;;;;;;0.20;0.20;;;;;;;19.96;30.94;101334.50;5048239;28;20495;-33
2022/03/11 06:50:06;;;;;;;0.20;0.20;;;;;;;19.96;30.94;101336.44;5059507;28;20411;-35
2022/03/11 06:52:32;;;;;;;0.20;0.20;;;;;;;19.95;30.94;101335.59;5061651;28;20050;-33
2022/03/11 06:54:57;;;;;;;0.20;0.20;;;;;;;19.97;31.07;101340.84;5059860;28;20205;-33
2022/03/11 06:57:23;;;;;;;0.20;0.20;;;;;;;19.96;30.83;101340.03;5052860;28;20052;-32
2022/03/11 06:59:49;;;;;;;0.20;0.20;;;;;;;19.96;30.94;101345.56;5054696;28;20044;-33
2022/03/11 07:02:16;;;;;;;0.20;0.20;;;;;;;19.96;30.90;101333.66;5054731;28;20483;-36
2022/03/11 07:04:42;;;;;;;0.20;0.20;;;;;;;19.96;31.08;101331.72;5055995;28;20093;-33
2022/03/11 07:07:07;;;;;;;0.20;0.20;;;;;;;19.96;31.02;101339.19;5058489;28;20090;-32
2022/03/11 07:09:34;;;;;;;0.20;0.20;;;;;;;19.98;30.86;101342.50;5058814;28;20048;-36
2022/03/11 07:12:02;;;;;;;0.20;0.20;;;;;;;19.96;30.85;101340.03;5058682;28;20048;-35
2022/03/11 07:14:28;;;;;;;;;;;;;;;19.97;30.82;101344.44;5063469;28;20052;-32
2022/03/11 07:16:56;;;;;;;0.20;0.20;;;;;;;19.95;30.82;101340.31;5062034;28;19924;-32
2022/03/11 07:19:23;;;;;;;0.20;0.20;;;;;;;19.96;30.90;101340.03;5055801;28;20554;-34
2022/03/11 07:21:48;;;;;;;0.20;0.20;;;;;;;19.97;30.69;101349.16;5057984;28;20464;-35
2022/03/11 07:24:14;;;;;;;0.20;0.20;;;;;;;19.96;30.98;101340.03;5062030;28;20492;-32
2022/03/11 07:26:40;;;;;;;0.20;0.20;;;;;;;19.96;30.94;101336.44;5054311;28;20051;-32
2022/03/11 07:29:05;;;;;;;0.20;0.20;;;;;;;19.96;30.80;101347.50;5053433;28;20049;-32
2022/03/11 07:31:31;;;;;;;0.25;0.25;;;;;;;19.97;30.94;101349.97;5050575;28;20093;-33
2022/03/11 07:33:58;;;;;;;0.20;0.20;;;;;;;19.96;30.68;101355.78;5053272;28;20384;-35
2022/03/11 07:36:23;;;;;;;0.20;0.20;;;;;;;19.95;31.10;101346.66;5057266;28;20165;-32
2022/03/11 07:38:49;;;;;;;0.20;0.20;;;;;;;19.95;31.04;101346.66;5037528;28;20098;-34
2022/03/11 07:41:16;;;;;;;0.20;0.20;;;;;;;19.96;30.95;101341.97;5054700;28;20048;-31
2022/03/11 07:43:44;;;;;;;0.20;0.20;;;;;;;19.96;30.65;101344.72;5055138;28;20063;-32
2022/03/11 07:46:30;;;;;;;0.20;0.20;;;;;;;19.95;30.71;101341.13;5035772;28;20107;-33
2022/03/11 07:48:57;;;;;;;0.20;0.20;;;;;;;19.95;30.74;101335.59;5052558;28;20040;-35
2022/03/11 07:51:25;;;;;;;0.25;0.25;;;;;;;19.97;30.43;101333.38;5051510;28;20052;-34
2022/03/11 07:53:50;;;;;;;0.20;0.20;;;;;;;19.94;30.92;101331.16;5052301;28;20484;-33
2022/03/11 07:56:16;;;;;;;0.20;0.20;;;;;;;19.95;30.91;101326.50;5051704;28;20063;-33
2022/03/11 07:58:42;;;;;;;0.20;0.20;;;;;;;19.96;30.91;101331.72;5047873;28;20060;-33
2022/03/11 08:01:09;;;;;;;0.20;0.20;;;;;;;19.96;30.61;101333.66;5049539;28;20490;-33
2022/03/11 08:03:37;;;;;;;0.20;0.20;;;;;;;19.97;30.67;101329.78;5036429;28;20075;-32
2022/03/11 08:06:04;;;;;;;0.20;0.20;;;;;;;19.97;30.83;101327.03;5045980;28;20105;-35
2022/03/11 08:08:29;;;;;;;0.20;0.20;;;;;;;19.95;30.74;101318.19;5047255;28;20143;-32
2022/03/11 08:10:55;;;;;;;0.20;0.20;;;;;;;19.95;30.49;101329.25;5039242;28;20052;-33
2022/03/11 08:13:31;;;;;;;0.20;0.20;;;;;;;20.00;30.51;101313.50;5043819;28;20125;-34
2022/03/11 08:15:57;;;;;;;0.20;0.20;;;;;;;20.00;30.82;101312.66;5054072;28;20056;-33
2022/03/11 08:18:23;;;;;;;0.10;0.10;;;;;;;19.99;30.49;101325.66;5052856;28;20098;-36
2022/03/11 08:20:48;;;;;;;0.20;0.20;;;;;;;19.98;30.44;101318.44;5053011;28;20610;-33
2022/03/11 08:23:14;;;;;;;0.20;0.20;;;;;;;19.99;30.83;101316.50;5037327;28;20051;-36
2022/03/11 08:25:41;;;;;;;0.20;0.20;;;;;;;19.99;30.59;101322.03;5041074;28;20044;-32
2022/03/11 08:28:10;;;;;;;0.20;0.20;;;;;;;19.99;30.70;101305.44;5053139;28;20075;-34
2022/03/11 08:30:37;;;;;;;0.20;0.20;;;;;;;19.99;30.91;101309.06;5050871;28;20052;-38
2022/03/11 08:33:04;;;;;;;0.20;0.20;;;;;;;19.98;30.52;101317.63;5053213;28;20048;-38
2022/03/11 08:35:50;;;;;;;0.20;0.20;;;;;;;19.97;30.51;101305.75;5035996;28;20058;-37
2022/03/11 08:38:35;;;;;;;0.20;0.20;;;;;;;19.97;30.69;101299.38;5057543;28;20350;-33
2022/03/11 08:41:02;;;;;;;0.20;0.20;;;;;;;19.99;30.83;101297.16;5056253;28;20405;-34
2022/03/11 08:43:28;;;;;;;0.20;0.20;;;;;;;19.97;30.61;101294.69;5057757;28;20048;-34
2022/03/11 08:45:53;;;;;;;0.20;0.20;;;;;;;19.98;30.66;101296.34;5055883;28;20114;-39
2022/03/11 08:48:19;;;;;;;0.20;0.20;;;;;;;19.97;30.66;101294.69;5055615;28;20123;-33
2022/03/11 08:50:50;;;;;;;0.20;0.20;;;;;;;19.97;30.75;101293.84;5049632;28;20079;-34
2022/03/11 08:53:18;;;;;;;0.20;0.20;;;;;;;19.97;30.76;101283.63;5054600;28;20063;-34
2022/03/11 08:55:44;;;;;;;0.20;0.20;;;;;;;19.98;30.62;101287.22;5054531;28;20074;-35
2022/03/11 08:58:09;;;;;;;0.20;0.20;;;;;;;19.98;30.89;101279.75;5056681;28;20419;-33
2022/03/11 09:00:35;;;;;;;0.22;0.22;;;;;;;19.97;30.54;101280.03;5052808;28;20049;-34
2022/03/11 09:03:01;;;;;;;0.20;0.20;;;;;;;19.98;30.65;101276.16;5044328;28;20048;-36
2022/03/11 09:05:31;;;;;;;0.20;0.20;;;;;;;19.98;30.66;101274.22;5045626;28;20054;-33
2022/03/11 09:07:58;;;;;;;0.20;0.20;;;;;;;19.99;30.88;101272.28;5047106;28;20056;-34
2022/03/11 09:10:23;;;;;;;0.20;0.20;;;;;;;19.97;30.63;101268.97;5049142;28;20064;-33
2022/03/11 09:12:49;;;;;;;0.20;0.20;;;;;;;19.98;30.83;101259.56;5051408;28;20048;-34
2022/03/11 09:15:15;;;;;;;0.20;0.20;;;;;;;19.98;30.58;101265.09;5047890;28;21233;-32
2022/03/11 09:17:41;;;;;;;0.20;0.20;;;;;;;20.01;30.39;101265.38;5051542;28;20614;-35
2022/03/11 09:20:07;;;;;;;0.20;0.20;;;;;;;20.01;30.56;101264.56;5033184;28;20128;-32
2022/03/11 09:22:41;;;;;;;0.20;0.20;;;;;;;20.01;30.54;101279.19;5034672;28;20048;-32
2022/03/11 09:25:07;;;;;;;0.20;0.20;;;;;;;20.01;30.29;101276.44;5035392;28;20036;-31
2022/03/11 09:27:33;;;;;;;0.20;0.20;;;;;;;20.03;30.76;101262.31;5049511;28;20052;-35
2022/03/11 09:29:59;;;;;;;0.20;0.20;;;;;;;20.03;31.21;101279.75;5051074;28;20076;-34
2022/03/11 09:32:25;;;;;;;0.20;0.20;;;;;;;20.09;30.95;101274.22;5046713;28;20053;-31
2022/03/11 09:34:52;;;;;;;0.20;0.20;;;;;;;20.07;30.81;101284.72;5044088;28;20137;-38
2022/03/11 09:37:18;;;;;;;0.20;0.20;;;;;;;20.07;30.71;101285.53;5045508;28;20053;-36
2022/03/11 09:39:44;;;;;;;0.20;0.20;;;;;;;20.10;30.79;101264.81;5047786;28;20037;-33
2022/03/11 09:42:10;;;;;;;0.20;0.20;;;;;;;20.08;30.78;101273.41;5050770;28;20493;-34
2022/03/11 09:44:38;;;;;;;0.20;0.20;;;;;;;20.10;30.97;101275.88;5051881;28;20048;-32
2022/03/11 09:47:04;;;;;;;;;;;;;;;20.10;30.71;101271.16;5053221;28;20203;-33
2022/03/11 09:49:34;;;;;;;0.20;0.20;;;;;;;20.10;30.96;101268.41;5052163;28;20083;-37
2022/03/11 09:52:00;;;;;;;0.20;0.20;;;;;;;20.11;30.72;101274.75;5053427;28;20045;-33
2022/03/11 09:54:25;;;;;;;0.20;0.20;;;;;;;20.09;31.00;101258.47;5051794;28;21512;-34
2022/03/11 09:56:51;;;;;;;0.20;0.20;;;;;;;20.11;31.00;101272.00;5047114;28;20053;-33
2022/03/11 09:59:18;;;;;;;0.20;0.20;;;;;;;20.11;30.77;101253.47;5051304;28;20049;-33
2022/03/11 10:01:43;;;;;;;0.20;0.20;;;;;;;20.12;30.49;101255.16;5050602;28;20056;-33
2022/03/11 10:04:11;;;;;;;0.20;0.20;;;;;;;20.13;30.82;101255.97;5053084;28;20061;-33
2022/03/11 10:06:41;;;;;;;0.20;0.20;;;;;;;20.14;30.83;101261.22;5053581;28;20051;-31
2022/03/11 10:12:00;;;;;;;0.20;0.20;;;;;;;20.15;30.45;101245.44;5151036;27;20820;-31
2022/03/11 10:14:35;;;;;;;0.20;0.20;;;;;;;20.15;30.62;101257.31;5153547;27;20318;-32
2022/03/11 10:17:03;;;;;;;0.20;0.20;;;;;;;20.18;30.78;101254.00;5152398;27;20567;-32
2022/03/11 10:19:29;;;;;;;0.20;0.20;;;;;;;20.18;30.57;101258.72;5148694;27;20058;-33
2022/03/11 10:21:58;;;;;;;0.20;0.20;;;;;;;20.18;30.65;101261.47;5152520;27;20050;-34
2022/03/11 10:24:23;;;;;;;0.20;0.20;;;;;;;20.19;30.22;101266.72;5131299;27;20540;-34
2022/03/11 10:26:55;;;;;;;0.20;0.20;;;;;;;20.19;30.35;101241.84;5155053;27;20046;-37
2022/03/11 10:29:24;;;;;;;0.20;0.20;;;;;;;20.20;30.54;101249.03;5149925;27;20515;-35
2022/03/11 10:31:52;;;;;;;0.20;0.20;;;;;;;20.21;30.42;101238.81;5152574;27;20493;-31
2022/03/11 10:34:24;;;;;;;0.10;0.10;;;;;;;20.21;30.78;101239.63;5152682;27;20039;-32
2022/03/11 10:39:36;;;;;;;0.20;0.20;;;;;;;20.22;30.61;101232.16;5152943;27;20552;-29
2022/03/11 10:42:18;;;;;;;0.20;0.20;;;;;;;20.23;30.69;101231.06;5126892;27;20125;-29
2022/03/11 10:45:03;;;;;;;0.20;0.20;;;;;;;20.22;30.53;101226.63;5116758;27;20452;-32
2022/03/11 10:47:33;;;;;;;0.20;0.20;;;;;;;20.23;30.33;101215.28;5133760;27;20074;-34
2022/03/11 10:50:01;;;;;;;0.20;0.20;;;;;;;20.23;30.60;101217.22;5112572;27;20055;-33
2022/03/11 10:52:29;;;;;;;;;;;;;;;20.22;30.67;101213.63;5128886;27;20482;-34
2022/03/11 10:54:54;;;;;;;0.20;0.20;;;;;;;20.23;30.49;101217.22;5132142;27;19933;-31
2022/03/11 10:57:21;;;;;;;0.30;0.30;;;;;;;20.22;30.62;101205.34;5135348;27;20141;-33
2022/03/11 10:59:47;;;;;;;0.20;0.20;;;;;;;20.23;30.62;101206.16;5131949;27;20323;-32
2022/03/11 11:02:13;;;;;;;0.20;0.20;;;;;;;20.24;30.49;101213.34;5133455;27;20050;-29
2022/03/11 11:04:40;;;;;;;0.20;0.20;;;;;;;20.24;30.63;101213.34;5131498;27;20054;-30
2022/03/11 11:07:07;;;;;;;0.20;0.20;;;;;;;20.24;30.35;101214.16;5132636;27;20075;-32
2022/03/11 11:09:33;;;;;;;0.20;0.20;;;;;;;20.24;30.72;101202.28;5129070;27;21287;-30
2022/03/11 11:11:58;;;;;;;0.20;0.20;;;;;;;20.24;30.48;101202.28;5129817;27;20050;-29
2022/03/11 11:14:24;;;;;;;0.20;0.20;;;;;;;20.24;30.35;101192.03;5132801;27;20039;-27
2022/03/11 11:16:51;;;;;;;0.20;0.20;;;;;;;20.25;30.72;101190.94;5132708;27;20353;-35
2022/03/11 11:19:19;;;;;;;0.20;0.20;;;;;;;20.24;30.62;101189.28;5128974;27;20694;-33
2022/03/11 11:21:47;;;;;;;0.20;0.20;;;;;;;20.25;30.33;101167.97;5133608;27;20070;-32
2022/03/11 11:24:15;;;;;;;0.20;0.20;;;;;;;20.25;30.53;101173.50;5133610;27;20102;-31
2022/03/11 11:26:45;;;;;;;0.20;0.20;;;;;;;20.25;30.37;101171.59;5148087;27;20497;-31
2022/03/11 11:29:11;;;;;;;0.20;0.20;;;;;;;20.24;30.77;101158.84;5127054;27;20512;-31